createdAt,value
2019-02-05T00:01:18.662Z,1.34
2019-02-05T00:03:46.400Z,1.37
2019-02-05T00:06:14.362Z,1.42
2019-02-05T00:08:42.132Z,1.56
2019-02-05T00:11:09.888Z,1.50
2019-02-05T00:13:37.645Z,1.42
2019-02-05T00:16:05.532Z,1.38
2019-02-05T00:18:33.319Z,1.38
2019-02-05T00:21:01.274Z,1.48
2019-02-05T00:23:29.446Z,1.47
2019-02-05T00:26:05.862Z,1.31
2019-02-05T00:28:27.063Z,1.36
2019-02-05T00:30:55.124Z,1.34
2019-02-05T00:33:22.874Z,1.25
2019-02-05T00:35:50.653Z,1.18
2019-02-05T00:38:18.429Z,1.11
2019-02-05T00:40:47.456Z,1.06
2019-02-05T00:43:15.211Z,1.03
2019-02-05T00:45:42.960Z,1.10
2019-02-05T00:48:10.931Z,1.01
2019-02-05T00:50:38.888Z,0.98
2019-02-05T00:53:06.827Z,0.94
2019-02-05T00:55:34.587Z,0.97
2019-02-05T00:58:03.054Z,0.96
2019-02-05T01:00:32.497Z,0.90
2019-02-05T01:03:00.873Z,0.89
2019-02-05T01:05:29.044Z,0.85
2019-02-05T01:07:56.886Z,0.80
2019-02-05T01:10:25.881Z,0.77
2019-02-05T01:12:54.614Z,0.82
2019-02-05T01:15:23.041Z,0.93
2019-02-05T01:17:51.426Z,0.91
2019-02-05T01:20:19.643Z,0.83
2019-02-05T01:22:48.074Z,0.82
2019-02-05T01:25:16.686Z,0.73
2019-02-05T01:27:44.557Z,0.82
2019-02-05T01:30:23.811Z,0.81
2019-02-05T01:32:51.733Z,0.99
2019-02-05T01:35:19.724Z,0.94
2019-02-05T01:37:47.746Z,1.02
2019-02-05T01:40:18.288Z,1.18
2019-02-05T01:42:46.034Z,1.09
2019-02-05T01:45:16.470Z,1.21
2019-02-05T01:47:44.677Z,1.18
2019-02-05T01:50:18.927Z,1.04
2019-02-05T01:52:49.818Z,1.00
2019-02-05T01:55:18.010Z,1.10
2019-02-05T01:57:45.929Z,1.11
2019-02-05T02:00:17.954Z,1.13
2019-02-05T02:02:45.898Z,1.16
2019-02-05T02:05:14.152Z,1.09
2019-02-05T02:07:42.046Z,1.26
2019-02-05T02:10:13.986Z,1.29
2019-02-05T02:12:41.830Z,1.33
2019-02-05T02:15:10.325Z,1.22
2019-02-05T02:17:38.076Z,1.19
2019-02-05T02:20:08.800Z,1.28
2019-02-05T02:22:36.910Z,1.27
2019-02-05T02:25:05.930Z,1.23
2019-02-05T02:27:33.967Z,1.04
2019-02-05T02:30:01.954Z,1.27
2019-02-05T02:32:29.677Z,1.38
2019-02-05T02:34:57.464Z,1.13
2019-02-05T02:37:25.375Z,1.20
2019-02-05T02:39:53.295Z,1.15
2019-02-05T02:42:21.067Z,1.17
2019-02-05T02:44:48.943Z,1.21
2019-02-05T02:47:16.690Z,1.30
2019-02-05T02:49:44.563Z,1.19
2019-02-05T02:52:12.458Z,1.14
2019-02-05T02:54:40.190Z,1.11
2019-02-05T02:57:08.010Z,1.22
2019-02-05T02:59:35.924Z,1.23
2019-02-05T03:02:03.894Z,1.14
2019-02-05T03:04:31.754Z,1.22
2019-02-05T03:06:59.509Z,1.34
2019-02-05T03:09:27.252Z,1.32
2019-02-05T03:11:55.045Z,1.32
2019-02-05T03:14:22.799Z,1.34
2019-02-05T03:16:50.621Z,1.36
2019-02-05T03:19:18.922Z,1.31
2019-02-05T03:21:46.743Z,1.30
2019-02-05T03:24:14.685Z,1.33
2019-02-05T03:26:42.442Z,1.41
2019-02-05T03:29:10.344Z,1.39
2019-02-05T03:31:38.201Z,1.50
2019-02-05T03:34:05.968Z,1.55
2019-02-05T03:36:33.726Z,1.50
2019-02-05T03:39:01.470Z,1.45
2019-02-05T03:41:29.246Z,1.57
2019-02-05T03:43:57.146Z,1.42
2019-02-05T03:46:25.102Z,1.38
2019-02-05T03:48:53.728Z,1.46
2019-02-05T03:51:38.756Z,1.44
2019-02-05T03:55:14.558Z,1.46
2019-02-05T03:58:30.599Z,1.29
2019-02-05T04:01:41.566Z,1.28
2019-02-05T04:05:08.242Z,1.20
2019-02-05T04:08:31.133Z,1.15
2019-02-05T04:11:53.948Z,1.02
2019-02-05T04:15:39.260Z,1.11
2019-02-05T04:19:13.934Z,0.97
2019-02-05T04:22:18.099Z,0.98
2019-02-05T04:25:32.488Z,1.12
2019-02-05T04:28:51.813Z,1.30
2019-02-05T04:32:10.045Z,1.25
2019-02-05T04:36:02.959Z,1.32
2019-02-05T04:39:05.343Z,1.67
2019-02-05T04:42:07.429Z,1.77
2019-02-05T04:45:51.361Z,1.75
2019-02-05T04:49:38.137Z,1.71
2019-02-05T04:52:49.328Z,1.91
2019-02-05T04:56:17.278Z,1.90
2019-02-05T04:59:54.172Z,1.83
2019-02-05T05:03:24.968Z,1.55
2019-02-05T05:06:35.171Z,1.45
2019-02-05T05:09:30.515Z,1.43
2019-02-05T05:11:58.266Z,1.47
2019-02-05T05:14:26.164Z,1.48
2019-02-05T05:16:54.140Z,1.61
2019-02-05T05:19:22.607Z,1.59
2019-02-05T05:21:50.785Z,1.67
2019-02-05T05:24:18.787Z,1.49
2019-02-05T05:26:46.772Z,1.53
2019-02-05T05:29:14.695Z,1.53
2019-02-05T05:31:42.675Z,1.52
2019-02-05T05:34:10.431Z,1.63
2019-02-05T05:36:47.414Z,1.60
2019-02-05T05:39:15.237Z,1.58
2019-02-05T05:41:43.027Z,1.59
2019-02-05T05:44:10.836Z,1.59
2019-02-05T05:46:39.753Z,1.67
2019-02-05T05:49:07.659Z,1.60
2019-02-05T05:51:35.420Z,1.60
2019-02-05T05:54:03.508Z,1.62
2019-02-05T05:56:31.354Z,1.56
2019-02-05T05:58:59.100Z,1.69
2019-02-05T06:01:26.864Z,1.62
2019-02-05T06:03:54.628Z,1.82
2019-02-05T06:06:23.172Z,1.91
2019-02-05T06:08:51.412Z,1.72
2019-02-05T06:11:19.477Z,1.92
2019-02-05T06:13:47.272Z,2.00
2019-02-05T06:16:15.024Z,1.92
2019-02-05T06:18:43.000Z,1.91
2019-02-05T06:21:13.622Z,1.86
2019-02-05T06:23:40.512Z,1.89
2019-02-05T06:26:08.276Z,1.96
2019-02-05T06:28:36.388Z,1.90
2019-02-05T06:31:04.231Z,1.98
2019-02-05T06:33:32.021Z,2.04
2019-02-05T06:35:59.979Z,2.15
2019-02-05T06:38:27.875Z,2.11
2019-02-05T06:40:55.614Z,2.13
2019-02-05T06:43:23.399Z,1.88
2019-02-05T06:45:51.190Z,1.96
2019-02-05T06:48:18.971Z,2.12
2019-02-05T06:50:49.104Z,2.11
2019-02-05T06:53:16.936Z,2.23
2019-02-05T06:55:44.909Z,2.44
2019-02-05T06:58:12.771Z,2.44
2019-02-05T07:00:40.533Z,2.43
2019-02-05T07:03:08.699Z,2.30
2019-02-05T07:05:36.937Z,2.35
2019-02-05T07:08:04.764Z,2.55
2019-02-05T07:10:32.524Z,2.31
2019-02-05T07:13:00.272Z,2.37
2019-02-05T07:15:31.234Z,2.10
2019-02-05T07:18:02.048Z,1.86
2019-02-05T07:20:29.823Z,2.04
2019-02-05T07:22:57.596Z,2.19
2019-02-05T07:25:25.425Z,2.34
2019-02-05T07:27:53.177Z,2.25
2019-02-05T07:30:22.438Z,2.21
2019-02-05T07:32:50.258Z,2.37
2019-02-05T07:35:18.058Z,2.46
2019-02-05T07:37:46.258Z,2.63
2019-02-05T07:40:16.281Z,2.72
2019-02-05T07:42:44.085Z,2.92
2019-02-05T07:45:15.564Z,2.86
2019-02-05T07:47:43.432Z,2.99
2019-02-05T07:50:15.642Z,3.20
2019-02-05T07:52:43.932Z,3.27
2019-02-05T07:55:12.067Z,3.10
2019-02-05T07:57:40.158Z,3.16
2019-02-05T08:00:13.872Z,2.90
2019-02-05T08:02:41.644Z,3.33
2019-02-05T08:05:14.606Z,3.42
2019-02-05T08:07:42.468Z,3.59
2019-02-05T08:10:11.977Z,3.36
2019-02-05T08:12:39.763Z,3.48
2019-02-05T08:15:10.854Z,3.60
2019-02-05T08:17:39.057Z,3.95
2019-02-05T08:20:07.159Z,4.11
2019-02-05T08:22:35.310Z,4.28
2019-02-05T08:25:03.370Z,4.50
2019-02-05T08:27:31.120Z,4.41
2019-02-05T08:30:01.229Z,4.28
2019-02-05T08:32:29.263Z,4.07
2019-02-05T08:34:57.362Z,4.23
2019-02-05T08:37:25.144Z,4.46
2019-02-05T08:39:52.958Z,4.59
2019-02-05T08:42:20.711Z,4.33
2019-02-05T08:44:48.531Z,4.48
2019-02-05T08:47:16.307Z,4.76
2019-02-05T08:49:44.075Z,4.78
2019-02-05T08:52:11.979Z,5.09
2019-02-05T08:54:40.095Z,5.21
2019-02-05T08:57:07.903Z,5.13
2019-02-05T08:59:35.661Z,4.76
2019-02-05T09:02:03.635Z,4.93
2019-02-05T09:04:31.448Z,5.10
2019-02-05T09:06:59.187Z,5.09
2019-02-05T09:09:26.982Z,5.01
2019-02-05T09:11:54.825Z,4.94
2019-02-05T09:14:22.883Z,5.16
2019-02-05T09:16:50.693Z,5.22
2019-02-05T09:19:18.467Z,5.55
2019-02-05T09:21:46.313Z,5.54
2019-02-05T09:24:14.069Z,6.05
2019-02-05T09:26:41.855Z,5.85
2019-02-05T09:29:09.675Z,6.07
2019-02-05T09:31:37.571Z,6.50
2019-02-05T09:34:05.374Z,6.63
2019-02-05T09:36:33.196Z,6.94
2019-02-05T09:39:00.997Z,7.25
2019-02-05T09:41:28.860Z,7.42
2019-02-05T09:44:00.315Z,7.69
2019-02-05T09:46:28.128Z,7.43
2019-02-05T09:48:55.927Z,7.61
2019-02-05T09:51:24.032Z,7.54
2019-02-05T09:53:51.792Z,7.38
2019-02-05T09:56:19.578Z,7.11
2019-02-05T09:58:47.371Z,6.99
2019-02-05T10:01:15.184Z,6.85
2019-02-05T10:03:42.961Z,6.59
2019-02-05T10:06:10.777Z,5.86
2019-02-05T10:08:38.601Z,5.87
2019-02-05T10:11:06.353Z,6.22
2019-02-05T10:13:34.112Z,6.30
2019-02-05T10:16:02.003Z,6.06
2019-02-05T10:18:29.903Z,6.13
2019-02-05T10:20:57.758Z,6.08
2019-02-05T10:23:25.520Z,6.03
2019-02-05T10:25:53.286Z,6.02
2019-02-05T10:28:21.434Z,6.05
2019-02-05T10:30:49.298Z,6.08
2019-02-05T10:33:17.070Z,6.02
2019-02-05T10:35:45.110Z,6.11
2019-02-05T10:38:12.884Z,6.07
2019-02-05T10:40:40.656Z,6.16
2019-02-05T10:43:08.539Z,6.42
2019-02-05T10:45:36.903Z,6.50
2019-02-05T10:48:07.436Z,6.64
2019-02-05T10:50:35.288Z,6.53
2019-02-05T10:53:03.910Z,6.35
2019-02-05T10:55:31.830Z,6.31
2019-02-05T10:57:59.668Z,6.07
2019-02-05T11:00:29.299Z,5.95
2019-02-05T11:02:59.495Z,6.02
2019-02-05T11:05:29.407Z,6.00
2019-02-05T11:07:57.459Z,6.02
2019-02-05T11:10:25.247Z,6.03
2019-02-05T11:12:53.025Z,5.99
2019-02-05T11:15:24.047Z,5.98
2019-02-05T11:17:51.813Z,6.00
2019-02-05T11:20:22.349Z,6.05
2019-02-05T11:22:50.497Z,6.14
2019-02-05T11:25:20.898Z,6.21
2019-02-05T11:27:48.886Z,6.19
2019-02-05T11:30:38.294Z,6.26
2019-02-05T11:33:06.375Z,6.32
2019-02-05T11:35:34.254Z,6.09
2019-02-05T11:38:02.344Z,5.97
2019-02-05T11:40:32.318Z,6.07
2019-02-05T11:43:00.174Z,6.13
2019-02-05T11:45:28.379Z,6.15
2019-02-05T11:47:57.920Z,6.26
2019-02-05T11:50:25.828Z,6.34
2019-02-05T11:52:53.871Z,6.34
2019-02-05T11:55:23.758Z,6.43
2019-02-05T11:57:51.606Z,6.40
2019-02-05T12:00:32.864Z,6.64
2019-02-05T12:02:59.122Z,6.76
2019-02-05T12:05:26.929Z,7.08
2019-02-05T12:07:55.082Z,7.32
2019-02-05T12:10:22.968Z,7.44
2019-02-05T12:12:50.761Z,7.85
2019-02-05T12:15:18.878Z,8.13
2019-02-05T12:17:46.660Z,8.33
2019-02-05T12:20:14.530Z,8.62
2019-02-05T12:22:42.493Z,8.79
2019-02-05T12:25:13.505Z,9.09
2019-02-05T12:27:41.474Z,9.33
2019-02-05T12:30:17.818Z,9.15
2019-02-05T12:32:45.764Z,9.14
2019-02-05T12:35:13.657Z,8.90
2019-02-05T12:37:41.474Z,8.64
2019-02-05T12:40:10.843Z,8.19
2019-02-05T12:42:38.946Z,8.25
2019-02-05T12:45:10.707Z,8.22
2019-02-05T12:47:38.492Z,8.51
2019-02-05T12:50:14.615Z,8.59
2019-02-05T12:52:42.427Z,8.66
2019-02-05T12:55:16.254Z,9.07
2019-02-05T12:57:39.994Z,9.37
2019-02-05T13:00:15.798Z,8.94
2019-02-05T13:02:43.704Z,9.25
2019-02-05T13:05:11.989Z,9.34
2019-02-05T13:07:39.819Z,9.34
2019-02-05T13:10:10.752Z,9.73
2019-02-05T13:12:38.864Z,9.58
2019-02-05T13:15:07.447Z,9.41
2019-02-05T13:17:35.412Z,8.48
2019-02-05T13:20:06.829Z,8.62
2019-02-05T13:22:34.747Z,8.36
2019-02-05T13:25:03.463Z,8.32
2019-02-05T13:27:31.671Z,8.18
2019-02-05T13:29:59.453Z,8.31
2019-02-05T13:32:27.417Z,8.14
2019-02-05T13:34:55.539Z,8.45
2019-02-05T13:37:23.311Z,8.44
2019-02-05T13:39:51.109Z,8.41
2019-02-05T13:42:18.888Z,8.45
2019-02-05T13:44:46.906Z,8.60
2019-02-05T13:47:14.928Z,8.52
2019-02-05T13:49:42.734Z,8.57
2019-02-05T13:52:10.834Z,8.43
2019-02-05T13:54:38.602Z,8.45
2019-02-05T13:57:06.418Z,8.32
2019-02-05T13:59:34.206Z,8.17
2019-02-05T14:02:02.013Z,7.93
2019-02-05T14:04:29.827Z,7.81
2019-02-05T14:06:57.756Z,7.89
2019-02-05T14:09:25.722Z,7.76
2019-02-05T14:11:53.517Z,7.65
2019-02-05T14:14:23.104Z,7.44
2019-02-05T14:16:50.889Z,7.21
2019-02-05T14:19:18.838Z,7.06
2019-02-05T14:21:46.792Z,7.05
2019-02-05T14:24:14.627Z,6.88
2019-02-05T14:26:42.418Z,6.69
2019-02-05T14:29:12.235Z,6.84
2019-02-05T14:31:39.994Z,6.77
2019-02-05T14:34:07.770Z,6.72
2019-02-05T14:36:35.687Z,6.67
2019-02-05T14:39:08.154Z,6.54
2019-02-05T14:41:36.013Z,6.42
2019-02-05T14:44:04.596Z,6.51
2019-02-05T14:46:32.472Z,6.32
2019-02-05T14:49:00.403Z,6.39
2019-02-05T14:51:28.410Z,6.48
2019-02-05T14:53:56.674Z,6.50
2019-02-05T14:56:24.435Z,6.53
2019-02-05T14:58:52.389Z,6.43
2019-02-05T15:01:20.147Z,6.33
2019-02-05T15:03:47.914Z,6.20
2019-02-05T15:06:15.719Z,6.29
2019-02-05T15:08:43.519Z,6.42
2019-02-05T15:11:11.291Z,6.34
2019-02-05T15:13:39.229Z,6.25
2019-02-05T15:16:06.977Z,6.18
2019-02-05T15:18:34.949Z,6.02
2019-02-05T15:21:02.750Z,6.04
2019-02-05T15:23:30.520Z,6.10
2019-02-05T15:25:58.345Z,6.03
2019-02-05T15:28:26.087Z,6.04
2019-02-05T15:30:53.863Z,6.04
2019-02-05T15:33:41.409Z,6.01
2019-02-05T15:36:31.619Z,5.97
2019-02-05T15:38:59.491Z,5.92
2019-02-05T15:41:27.304Z,6.02
2019-02-05T15:43:55.046Z,5.84
2019-02-05T15:46:22.794Z,6.02
2019-02-05T15:48:50.924Z,5.78
2019-02-05T15:51:18.699Z,5.73
2019-02-05T15:53:46.731Z,5.78
2019-02-05T15:56:14.507Z,5.89
2019-02-05T15:58:42.487Z,5.84
2019-02-05T16:01:10.429Z,5.69
2019-02-05T16:03:38.172Z,5.73
2019-02-05T16:06:06.304Z,5.79
2019-02-05T16:08:34.056Z,5.58
2019-02-05T16:11:01.983Z,5.71
2019-02-05T16:13:29.930Z,5.61
2019-02-05T16:15:57.903Z,5.44
2019-02-05T16:18:25.722Z,5.48
2019-02-05T16:20:53.712Z,5.45
2019-02-05T16:23:21.705Z,5.36
2019-02-05T16:25:49.658Z,5.35
2019-02-05T16:28:17.488Z,5.35
2019-02-05T16:30:45.422Z,5.27
2019-02-05T16:33:13.220Z,5.18
2019-02-05T16:35:41.119Z,5.07
2019-02-05T16:38:09.018Z,5.13
2019-02-05T16:40:37.283Z,5.09
2019-02-05T16:43:05.344Z,5.21
2019-02-05T16:45:33.175Z,5.12
2019-02-05T16:48:00.977Z,5.13
2019-02-05T16:50:32.703Z,5.23
2019-02-05T16:53:00.496Z,5.14
2019-02-05T16:55:28.838Z,5.19
2019-02-05T16:57:56.656Z,5.03
2019-02-05T17:00:30.284Z,5.06
2019-02-05T17:02:58.206Z,4.92
2019-02-05T17:05:27.691Z,4.87
2019-02-05T17:07:55.687Z,4.85
2019-02-05T17:10:23.830Z,4.90
2019-02-05T17:12:51.908Z,4.83
2019-02-05T17:15:19.759Z,4.64
2019-02-05T17:17:47.501Z,4.65
2019-02-05T17:20:21.875Z,4.57
2019-02-05T17:22:50.366Z,4.55
2019-02-05T17:25:19.401Z,4.43
2019-02-05T17:27:47.825Z,4.51
2019-02-05T17:30:24.782Z,4.49
2019-02-05T17:32:52.545Z,4.52
2019-02-05T17:35:20.373Z,4.64
2019-02-05T17:37:49.619Z,4.56
2019-02-05T17:40:19.641Z,4.52
2019-02-05T17:42:48.007Z,4.59
2019-02-05T17:45:21.813Z,4.58
2019-02-05T17:47:50.131Z,4.48
2019-02-05T17:50:18.053Z,4.46
2019-02-05T17:52:45.920Z,4.38
2019-02-05T17:55:14.187Z,4.45
2019-02-05T17:57:42.065Z,4.47
2019-02-05T18:00:28.807Z,4.45
2019-02-05T18:02:56.615Z,4.42
2019-02-05T18:05:24.541Z,4.52
2019-02-05T18:07:52.738Z,4.42
2019-02-05T18:10:23.913Z,4.49
2019-02-05T18:12:51.777Z,4.46
2019-02-05T18:15:23.371Z,4.42
2019-02-05T18:17:51.605Z,4.49
2019-02-05T18:20:19.416Z,4.36
2019-02-05T18:22:47.215Z,4.43
2019-02-05T18:25:16.234Z,4.43
2019-02-05T18:27:44.140Z,4.42
2019-02-05T18:30:21.836Z,4.34
2019-02-05T18:32:49.720Z,4.34
2019-02-05T18:35:17.516Z,4.33
2019-02-05T18:37:46.618Z,4.32
2019-02-05T18:40:16.023Z,4.26
2019-02-05T18:42:43.775Z,4.18
2019-02-05T18:45:13.804Z,4.21
2019-02-05T18:47:41.537Z,4.26
2019-02-05T18:50:12.988Z,4.21
2019-02-05T18:52:41.219Z,4.22
2019-02-05T18:55:10.634Z,4.14
2019-02-05T18:57:38.672Z,4.09
2019-02-05T19:00:16.020Z,4.04
2019-02-05T19:02:43.869Z,3.95
2019-02-05T19:05:12.040Z,3.89
2019-02-05T19:07:40.172Z,3.79
2019-02-05T19:10:10.831Z,3.65
2019-02-05T19:12:38.599Z,3.53
2019-02-05T19:15:13.245Z,3.57
2019-02-05T19:17:41.055Z,3.40
2019-02-05T19:20:09.068Z,3.28
2019-02-05T19:22:37.243Z,3.19
2019-02-05T19:25:25.595Z,3.16
2019-02-05T19:27:53.391Z,3.14
2019-02-05T19:30:23.372Z,3.02
2019-02-05T19:32:51.148Z,2.97
2019-02-05T19:35:19.235Z,2.98
2019-02-05T19:37:47.173Z,2.94
2019-02-05T19:40:15.277Z,2.89
2019-02-05T19:42:43.065Z,2.84
2019-02-05T19:45:39.503Z,2.82
2019-02-05T19:48:11.327Z,2.84
2019-02-05T19:50:39.151Z,2.80
2019-02-05T19:53:06.918Z,2.78
2019-02-05T19:55:34.828Z,2.68
2019-02-05T19:58:02.585Z,2.68
2019-02-05T20:00:30.370Z,2.83
2019-02-05T20:02:58.146Z,2.79
2019-02-05T20:05:26.021Z,2.76
2019-02-05T20:07:53.843Z,2.81
2019-02-05T20:10:21.751Z,2.77
2019-02-05T20:12:49.556Z,2.86
2019-02-05T20:15:19.623Z,2.87
2019-02-05T20:17:47.322Z,2.98
2019-02-05T20:20:15.322Z,3.13
2019-02-05T20:22:43.254Z,3.25
2019-02-05T20:25:12.426Z,3.38
2019-02-05T20:27:40.278Z,3.46
2019-02-05T20:30:11.719Z,3.46
2019-02-05T20:32:39.540Z,3.52
2019-02-05T20:35:07.596Z,3.56
2019-02-05T20:37:36.328Z,3.65
2019-02-05T20:40:10.641Z,3.70
2019-02-05T20:42:38.420Z,3.77
2019-02-05T20:45:07.394Z,3.78
2019-02-05T20:47:35.123Z,3.83
2019-02-05T20:50:04.976Z,3.86
2019-02-05T20:52:32.746Z,3.79
2019-02-05T20:55:00.587Z,3.87
2019-02-05T20:57:28.396Z,3.88
2019-02-05T20:59:56.300Z,3.91
2019-02-05T21:02:24.081Z,3.89
2019-02-05T21:04:51.950Z,3.94
2019-02-05T21:07:19.752Z,3.93
2019-02-05T21:09:47.566Z,3.96
2019-02-05T21:12:15.338Z,3.98
2019-02-05T21:14:43.154Z,3.99
2019-02-05T21:17:11.278Z,4.00
2019-02-05T21:19:39.070Z,4.02
2019-02-05T21:22:08.889Z,4.02
2019-02-05T21:24:36.663Z,4.04
2019-02-05T21:27:04.475Z,4.05
2019-02-05T21:29:32.271Z,4.06
2019-02-05T21:32:00.089Z,3.98
2019-02-05T21:34:27.935Z,4.02
2019-02-05T21:36:55.719Z,4.05
2019-02-05T21:39:23.492Z,4.06
2019-02-05T21:41:54.034Z,4.11
2019-02-05T21:44:21.785Z,4.12
2019-02-05T21:46:49.575Z,4.12
2019-02-05T21:49:17.336Z,4.05
2019-02-05T21:51:45.457Z,4.14
2019-02-05T21:54:13.271Z,4.04
2019-02-05T21:56:41.180Z,4.05
2019-02-05T21:59:08.982Z,4.05
2019-02-05T22:01:36.782Z,4.14
2019-02-05T22:04:04.716Z,4.15
2019-02-05T22:06:32.778Z,4.16
2019-02-05T22:09:00.622Z,4.15
2019-02-05T22:11:28.821Z,4.15
2019-02-05T22:13:56.680Z,4.07
2019-02-05T22:16:24.485Z,4.14
2019-02-05T22:18:52.248Z,4.11
2019-02-05T22:21:20.280Z,3.96
2019-02-05T22:23:48.040Z,3.84
2019-02-05T22:26:15.782Z,3.83
2019-02-05T22:28:43.573Z,3.70
2019-02-05T22:31:11.357Z,3.66
2019-02-05T22:33:39.175Z,3.67
2019-02-05T22:36:07.334Z,3.67
2019-02-05T22:38:36.486Z,3.74
2019-02-05T22:41:04.336Z,3.78
2019-02-05T22:43:32.110Z,3.88
2019-02-05T22:46:00.023Z,3.91
2019-02-05T22:48:28.089Z,3.89
2019-02-05T22:50:55.890Z,3.88
2019-02-05T22:53:23.946Z,3.88
2019-02-05T22:55:51.713Z,3.87
2019-02-05T22:58:20.104Z,3.92
2019-02-05T23:01:28.275Z,3.91
2019-02-05T23:04:19.723Z,3.91
2019-02-05T23:07:06.551Z,3.98
2019-02-05T23:09:52.861Z,4.09
2019-02-05T23:12:52.572Z,4.08
2019-02-05T23:15:23.152Z,4.10
2019-02-05T23:17:50.953Z,4.09
2019-02-05T23:20:21.171Z,4.11
2019-02-05T23:22:49.489Z,4.22
2019-02-05T23:25:17.317Z,4.15
2019-02-05T23:27:45.229Z,4.06
2019-02-05T23:30:22.629Z,4.11
2019-02-05T23:32:50.435Z,4.15
2019-02-05T23:35:18.317Z,4.19
2019-02-05T23:37:46.399Z,4.07
2019-02-05T23:40:14.529Z,4.32
2019-02-05T23:42:42.293Z,4.03
2019-02-05T23:45:10.765Z,3.91
2019-02-05T23:47:38.738Z,4.01
2019-02-05T23:50:10.031Z,4.13
2019-02-05T23:52:37.967Z,4.03
2019-02-05T23:55:08.302Z,3.83
2019-02-05T23:57:36.075Z,4.03
